createdAt,value
2023-01-22T00:01:15.593Z,12.07
2023-01-22T00:03:46.526Z,11.50
2023-01-22T00:06:14.868Z,12.37
2023-01-22T00:08:44.020Z,11.20
2023-01-22T00:11:12.735Z,11.53
2023-01-22T00:13:40.624Z,11.60
2023-01-22T00:16:09.249Z,11.27
2023-01-22T00:18:36.974Z,12.00
2023-01-22T00:21:04.761Z,11.13
2023-01-22T00:23:33.043Z,13.37
2023-01-22T00:26:07.108Z,12.20
2023-01-22T00:28:34.889Z,10.63
2023-01-22T00:31:04.408Z,10.90
2023-01-22T00:33:32.677Z,11.77
2023-01-22T00:36:05.172Z,12.70
2023-01-22T00:38:32.786Z,11.70
2023-01-22T00:41:02.258Z,12.23
2023-01-22T00:43:32.050Z,10.70
2023-01-22T00:45:59.663Z,11.13
2023-01-22T00:48:28.143Z,12.20
2023-01-22T00:50:56.309Z,12.43
2023-01-22T00:53:24.124Z,12.60
2023-01-22T00:55:52.543Z,12.30
2023-01-22T00:58:20.465Z,12.80
2023-01-22T01:00:50.003Z,11.27
2023-01-22T01:03:32.367Z,13.20
2023-01-22T01:06:02.725Z,12.77
2023-01-22T01:08:32.552Z,11.43
2023-01-22T01:11:02.527Z,11.87
2023-01-22T01:13:32.837Z,11.10
2023-01-22T01:16:03.483Z,11.87
2023-01-22T01:18:32.155Z,12.63
2023-01-22T01:21:01.105Z,10.60
2023-01-22T01:23:29.771Z,13.60
2023-01-22T01:25:57.922Z,12.27
2023-01-22T01:28:25.786Z,11.90
2023-01-22T01:30:53.525Z,12.47
2023-01-22T01:33:23.174Z,11.80
2023-01-22T01:35:50.801Z,10.80
2023-01-22T01:38:18.409Z,12.93
2023-01-22T01:40:46.152Z,12.57
2023-01-22T01:43:17.504Z,11.70
2023-01-22T01:45:45.683Z,13.37
2023-01-22T01:48:25.077Z,12.97
2023-01-22T01:50:59.054Z,12.70
2023-01-22T01:53:26.921Z,12.13
2023-01-22T01:55:57.364Z,12.47
2023-01-22T01:58:29.895Z,11.97
2023-01-22T02:01:06.662Z,12.33
2023-01-22T02:03:35.827Z,13.30
2023-01-22T02:06:03.539Z,12.40
2023-01-22T02:08:31.494Z,13.57
2023-01-22T02:10:59.503Z,14.13
2023-01-22T02:13:31.238Z,14.50
2023-01-22T02:15:59.992Z,12.57
2023-01-22T02:18:27.880Z,14.00
2023-01-22T02:20:58.750Z,13.90
2023-01-22T02:23:27.601Z,12.60
2023-01-22T02:25:55.718Z,12.63
2023-01-22T02:28:23.895Z,12.40
2023-01-22T02:30:54.701Z,11.60
2023-01-22T02:33:22.463Z,12.77
2023-01-22T02:35:50.199Z,12.47
2023-01-22T02:38:19.428Z,14.37
2023-01-22T02:40:49.938Z,15.73
2023-01-22T02:43:20.337Z,15.67
2023-01-22T02:45:48.134Z,14.77
2023-01-22T02:48:16.036Z,13.93
2023-01-22T02:50:45.082Z,14.60
2023-01-22T02:53:14.199Z,12.60
2023-01-22T02:55:46.154Z,15.60
2023-01-22T02:58:15.019Z,13.50
2023-01-22T03:00:42.888Z,13.50
2023-01-22T03:03:15.559Z,14.30
2023-01-22T03:05:48.147Z,14.10
2023-01-22T03:08:16.345Z,12.20
2023-01-22T03:10:45.958Z,14.00
2023-01-22T03:13:31.791Z,14.73
2023-01-22T03:16:17.079Z,14.77
2023-01-22T03:19:03.164Z,14.77
2023-01-22T03:21:30.764Z,14.53
2023-01-22T03:23:58.399Z,13.10
2023-01-22T03:26:28.872Z,14.93
2023-01-22T03:28:56.494Z,14.40
2023-01-22T03:31:24.197Z,14.70
2023-01-22T03:33:52.560Z,13.73
2023-01-22T03:36:20.259Z,12.60
2023-01-22T03:38:52.136Z,12.47
2023-01-22T03:41:23.471Z,14.07
2023-01-22T03:43:54.618Z,14.30
2023-01-22T03:46:26.925Z,15.73
2023-01-22T03:48:57.761Z,12.87
2023-01-22T03:51:27.134Z,13.90
2023-01-22T03:53:54.842Z,12.87
2023-01-22T03:56:24.382Z,14.23
2023-01-22T03:58:56.886Z,13.93
2023-01-22T04:01:26.640Z,13.60
2023-01-22T04:03:54.604Z,14.30
2023-01-22T04:06:25.338Z,13.93
2023-01-22T04:08:55.373Z,14.30
2023-01-22T04:11:28.806Z,13.97
2023-01-22T04:13:58.706Z,13.50
2023-01-22T04:16:29.722Z,13.43
2023-01-22T04:19:07.942Z,13.87
2023-01-22T04:21:49.047Z,13.73
2023-01-22T04:24:17.057Z,15.17
2023-01-22T04:26:44.718Z,14.03
2023-01-22T04:29:15.228Z,13.53
2023-01-22T04:31:43.871Z,12.63
2023-01-22T04:34:21.138Z,14.57
2023-01-22T04:37:11.618Z,12.10
2023-01-22T04:39:39.521Z,13.13
2023-01-22T04:42:07.127Z,13.63
2023-01-22T04:44:36.143Z,14.50
2023-01-22T04:47:03.793Z,13.43
2023-01-22T04:49:32.332Z,13.17
2023-01-22T04:52:00.175Z,13.80
2023-01-22T04:54:29.624Z,15.13
2023-01-22T04:56:57.419Z,12.43
2023-01-22T04:59:25.036Z,13.10
2023-01-22T05:01:54.081Z,13.83
2023-01-22T05:04:23.765Z,14.40
2023-01-22T05:06:52.305Z,14.40
2023-01-22T05:09:20.257Z,15.13
2023-01-22T05:11:56.074Z,15.13
2023-01-22T05:14:24.484Z,13.50
2023-01-22T05:16:52.126Z,13.43
2023-01-22T05:19:22.182Z,13.70
2023-01-22T05:21:50.062Z,15.03
2023-01-22T05:24:19.404Z,14.43
2023-01-22T05:26:47.203Z,12.03
2023-01-22T05:29:19.641Z,13.47
2023-01-22T05:32:15.589Z,13.53
2023-01-22T05:34:50.273Z,14.37
2023-01-22T05:37:17.876Z,13.27
2023-01-22T05:39:45.475Z,13.87
2023-01-22T05:42:16.933Z,14.40
2023-01-22T05:44:47.933Z,13.00
2023-01-22T05:47:16.134Z,15.43
2023-01-22T05:49:50.593Z,15.40
2023-01-22T05:52:18.233Z,13.00
2023-01-22T05:54:46.427Z,14.90
2023-01-22T05:57:14.211Z,14.03
2023-01-22T05:59:42.012Z,15.63
2023-01-22T06:02:10.095Z,14.33
2023-01-22T06:04:43.309Z,14.73
2023-01-22T06:07:26.217Z,13.97
2023-01-22T06:09:53.907Z,14.63
2023-01-22T06:12:21.595Z,14.07
2023-01-22T06:14:49.372Z,12.70
2023-01-22T06:17:17.019Z,15.03
2023-01-22T06:19:52.220Z,13.60
2023-01-22T06:22:20.214Z,16.33
2023-01-22T06:24:54.342Z,14.23
2023-01-22T06:27:24.706Z,13.90
2023-01-22T06:29:56.858Z,15.03
2023-01-22T06:32:24.536Z,14.50
2023-01-22T06:34:53.180Z,14.70
2023-01-22T06:37:22.839Z,13.87
2023-01-22T06:39:50.980Z,14.50
2023-01-22T06:42:27.111Z,13.50
2023-01-22T06:44:54.757Z,14.17
2023-01-22T06:47:25.708Z,11.93
2023-01-22T06:49:53.311Z,13.60
2023-01-22T06:52:21.091Z,13.40
2023-01-22T06:54:48.864Z,13.47
2023-01-22T06:57:16.834Z,14.60
2023-01-22T06:59:45.897Z,12.13
2023-01-22T07:02:17.449Z,11.80
2023-01-22T07:04:45.515Z,12.73
2023-01-22T07:07:13.403Z,12.47
2023-01-22T07:09:41.552Z,11.23
2023-01-22T07:12:09.425Z,12.00
2023-01-22T07:14:37.865Z,13.67
2023-01-22T07:17:07.099Z,12.03
2023-01-22T07:19:34.714Z,13.40
2023-01-22T07:22:02.337Z,11.43
2023-01-22T07:24:29.938Z,13.93
2023-01-22T07:26:57.541Z,12.50
2023-01-22T07:29:25.191Z,13.17
2023-01-22T07:31:52.955Z,12.60
2023-01-22T07:34:22.100Z,14.57
2023-01-22T07:36:49.798Z,12.90
2023-01-22T07:39:17.575Z,13.67
2023-01-22T07:41:45.188Z,12.23
2023-01-22T07:44:13.252Z,12.60
2023-01-22T07:46:40.899Z,11.23
2023-01-22T07:49:08.515Z,13.93
2023-01-22T07:51:37.621Z,12.67
2023-01-22T07:54:05.280Z,13.00
2023-01-22T07:56:32.969Z,14.03
2023-01-22T07:59:00.671Z,12.80
2023-01-22T08:01:28.355Z,11.10
2023-01-22T08:03:57.162Z,12.27
2023-01-22T08:06:25.007Z,11.90
2023-01-22T08:08:54.137Z,14.10
2023-01-22T08:11:21.938Z,12.50
2023-01-22T08:13:49.671Z,12.80
2023-01-22T08:16:17.420Z,12.90
2023-01-22T08:18:47.247Z,13.10
2023-01-22T08:21:14.844Z,12.67
2023-01-22T08:23:46.175Z,14.43
2023-01-22T08:26:16.751Z,11.87
2023-01-22T08:28:44.337Z,13.70
2023-01-22T08:31:26.379Z,12.70
2023-01-22T08:33:55.348Z,12.80
2023-01-22T08:36:23.021Z,12.23
2023-01-22T08:38:50.616Z,13.53
2023-01-22T08:41:19.731Z,11.93
2023-01-22T08:43:47.305Z,12.70
2023-01-22T08:46:15.084Z,12.47
2023-01-22T08:48:44.143Z,12.63
2023-01-22T08:51:12.201Z,12.07
2023-01-22T08:53:40.140Z,13.20
2023-01-22T08:56:08.569Z,13.10
2023-01-22T08:58:37.542Z,11.93
2023-01-22T09:01:05.574Z,12.67
2023-01-22T09:03:33.281Z,12.00
2023-01-22T09:06:00.884Z,13.30
2023-01-22T09:08:28.570Z,13.07
2023-01-22T09:10:56.141Z,12.00
2023-01-22T09:13:23.736Z,13.00
2023-01-22T09:15:52.794Z,14.13
2023-01-22T09:18:20.385Z,13.40
2023-01-22T09:20:48.020Z,14.37
2023-01-22T09:23:15.929Z,15.83
2023-01-22T09:25:43.765Z,12.70
2023-01-22T09:28:12.334Z,14.20
2023-01-22T09:30:41.670Z,14.53
2023-01-22T09:33:11.053Z,13.70
2023-01-22T09:35:38.775Z,14.70
2023-01-22T09:38:06.571Z,14.10
2023-01-22T09:40:41.872Z,14.90
2023-01-22T09:43:24.768Z,14.30
2023-01-22T09:45:55.792Z,13.93
2023-01-22T09:48:34.523Z,14.93
2023-01-22T09:51:02.500Z,13.93
2023-01-22T09:53:31.279Z,14.40
2023-01-22T09:55:59.653Z,14.60
2023-01-22T09:58:27.933Z,20.03
2023-01-22T10:01:00.189Z,16.50
2023-01-22T10:03:34.163Z,12.80
2023-01-22T10:06:05.718Z,15.20
2023-01-22T10:08:38.824Z,13.87
2023-01-22T10:11:09.890Z,13.17
2023-01-22T10:13:39.511Z,12.47
2023-01-22T10:16:08.033Z,13.60
2023-01-22T10:18:41.939Z,12.67
2023-01-22T10:21:18.536Z,14.63
2023-01-22T10:23:47.065Z,12.10
2023-01-22T10:26:17.915Z,16.00
2023-01-22T10:28:46.871Z,14.90
2023-01-22T10:31:24.562Z,14.90
2023-01-22T10:33:58.763Z,15.80
2023-01-22T10:36:27.280Z,15.60
2023-01-22T10:39:04.978Z,12.67
2023-01-22T10:41:32.841Z,14.57
2023-01-22T10:44:10.487Z,12.47
2023-01-22T10:46:38.101Z,11.40
2023-01-22T10:49:08.341Z,11.17
2023-01-22T10:51:38.556Z,12.13
2023-01-22T10:54:19.367Z,11.27
2023-01-22T10:56:47.307Z,11.53
2023-01-22T10:59:23.031Z,10.60
2023-01-22T11:01:57.522Z,9.83
2023-01-22T11:04:28.558Z,9.93
2023-01-22T11:07:01.407Z,9.67
2023-01-22T11:09:35.101Z,9.80
2023-01-22T11:12:12.045Z,9.43
2023-01-22T11:14:40.476Z,8.70
2023-01-22T11:17:15.588Z,7.50
2023-01-22T11:19:51.345Z,6.80
2023-01-22T11:22:27.395Z,6.60
2023-01-22T11:24:55.449Z,6.10
2023-01-22T11:27:50.195Z,6.83
2023-01-22T11:30:38.293Z,7.40
2023-01-22T11:33:14.566Z,6.17
2023-01-22T11:35:52.196Z,8.07
2023-01-22T11:38:29.437Z,7.53
2023-01-22T11:41:09.533Z,6.73
2023-01-22T11:43:55.461Z,6.87
2023-01-22T11:46:37.173Z,7.80
2023-01-22T11:49:14.323Z,7.13
2023-01-22T11:51:56.003Z,7.70
2023-01-22T11:54:45.982Z,8.17
2023-01-22T11:57:20.289Z,8.13
2023-01-22T12:00:14.720Z,8.73
2023-01-22T12:03:17.403Z,7.87
2023-01-22T12:05:49.024Z,8.73
2023-01-22T12:08:41.089Z,8.37
2023-01-22T12:11:24.208Z,8.87
2023-01-22T12:14:26.026Z,9.70
2023-01-22T12:17:02.824Z,8.70
2023-01-22T12:19:53.753Z,6.90
2023-01-22T12:22:43.202Z,9.63
2023-01-22T12:25:19.015Z,9.13
2023-01-22T12:27:53.227Z,8.90
2023-01-22T12:30:24.598Z,8.40
2023-01-22T12:32:56.707Z,8.27
2023-01-22T12:35:25.877Z,7.70
2023-01-22T12:38:02.597Z,7.50
2023-01-22T12:40:57.449Z,8.90
2023-01-22T12:43:35.036Z,6.83
2023-01-22T12:46:10.207Z,6.87
2023-01-22T12:48:47.067Z,8.63
2023-01-22T12:51:27.091Z,8.17
2023-01-22T12:53:54.975Z,8.53
2023-01-22T12:56:33.889Z,8.10
2023-01-22T12:59:01.671Z,8.00
2023-01-22T13:01:35.653Z,7.80
2023-01-22T13:04:06.666Z,6.70
2023-01-22T13:06:36.413Z,5.77
2023-01-22T13:09:05.325Z,5.47
2023-01-22T13:11:36.744Z,6.90
2023-01-22T13:14:20.096Z,6.70
2023-01-22T13:16:53.859Z,6.40
2023-01-22T13:19:24.033Z,7.47
2023-01-22T13:21:52.727Z,7.97
2023-01-22T13:24:22.016Z,7.83
2023-01-22T13:26:57.008Z,6.90
2023-01-22T13:29:28.540Z,6.80
2023-01-22T13:31:57.874Z,6.40
2023-01-22T13:34:26.453Z,6.93
2023-01-22T13:36:55.427Z,6.17
2023-01-22T13:39:28.347Z,6.13
2023-01-22T13:41:59.613Z,6.43
2023-01-22T13:44:32.646Z,7.00
2023-01-22T13:47:00.627Z,7.37
2023-01-22T13:49:29.714Z,6.53
2023-01-22T13:52:00.225Z,6.40
2023-01-22T13:54:31.719Z,5.87
2023-01-22T13:57:00.774Z,7.03
2023-01-22T13:59:34.860Z,6.87
2023-01-22T14:02:13.624Z,6.10
2023-01-22T14:04:41.492Z,7.60
2023-01-22T14:07:09.791Z,10.70
2023-01-22T14:09:40.435Z,7.27
2023-01-22T14:12:18.377Z,7.57
2023-01-22T14:14:46.307Z,6.97
2023-01-22T14:17:25.622Z,6.90
2023-01-22T14:19:56.571Z,7.37
2023-01-22T14:22:24.575Z,7.40
2023-01-22T14:24:52.891Z,8.97
2023-01-22T14:27:22.613Z,7.07
2023-01-22T14:29:50.518Z,7.30
2023-01-22T14:32:18.132Z,8.30
2023-01-22T14:34:45.756Z,8.43
2023-01-22T14:37:16.401Z,8.87
2023-01-22T14:39:44.063Z,10.03
2023-01-22T14:42:12.522Z,7.67
2023-01-22T14:44:41.481Z,7.00
2023-01-22T14:47:09.103Z,10.50
2023-01-22T14:49:36.723Z,9.23
2023-01-22T14:52:04.571Z,7.80
2023-01-22T14:54:32.185Z,8.60
2023-01-22T14:57:03.169Z,8.10
2023-01-22T14:59:30.971Z,9.00
2023-01-22T15:02:00.358Z,8.90
2023-01-22T15:04:28.141Z,8.57
2023-01-22T15:06:55.824Z,8.77
2023-01-22T15:09:23.485Z,8.60
2023-01-22T15:11:51.170Z,9.07
2023-01-22T15:14:18.783Z,10.30
2023-01-22T15:16:46.481Z,10.80
2023-01-22T15:19:18.300Z,9.37
2023-01-22T15:21:46.300Z,7.87
2023-01-22T15:24:14.055Z,8.53
2023-01-22T15:26:41.748Z,11.07
2023-01-22T15:29:11.216Z,10.30
2023-01-22T15:31:39.565Z,9.60
2023-01-22T15:34:08.721Z,9.90
2023-01-22T15:36:40.431Z,8.97
2023-01-22T15:39:08.465Z,9.83
2023-01-22T15:41:37.819Z,9.80
2023-01-22T15:44:06.821Z,9.60
2023-01-22T15:46:36.573Z,10.20
2023-01-22T15:49:06.271Z,10.50
2023-01-22T15:51:33.868Z,9.60
2023-01-22T15:54:05.196Z,11.17
2023-01-22T15:56:34.712Z,10.70
2023-01-22T15:59:02.999Z,10.43
2023-01-22T16:01:31.236Z,10.77
2023-01-22T16:04:00.786Z,10.33
2023-01-22T16:06:30.120Z,11.43
2023-01-22T16:09:00.324Z,11.20
2023-01-22T16:11:30.901Z,11.50
2023-01-22T16:13:59.111Z,10.30
2023-01-22T16:16:30.290Z,11.27
2023-01-22T16:18:59.179Z,10.80
2023-01-22T16:21:27.003Z,10.73
2023-01-22T16:23:56.587Z,11.77
2023-01-22T16:26:26.731Z,11.00
2023-01-22T16:28:58.093Z,10.70
2023-01-22T16:31:44.795Z,11.10
2023-01-22T16:34:14.513Z,9.73
2023-01-22T16:36:43.670Z,10.73
2023-01-22T16:39:18.210Z,11.83
2023-01-22T16:41:48.411Z,12.77
2023-01-22T16:44:19.019Z,12.23
2023-01-22T16:46:49.393Z,11.80
2023-01-22T16:49:20.019Z,12.07
2023-01-22T16:51:49.122Z,11.77
2023-01-22T16:54:20.899Z,11.73
2023-01-22T16:56:49.290Z,11.80
2023-01-22T16:59:18.406Z,11.53
2023-01-22T17:01:46.664Z,13.30
2023-01-22T17:04:14.998Z,12.67
2023-01-22T17:06:45.284Z,13.70
2023-01-22T17:09:16.403Z,12.93
2023-01-22T17:11:46.291Z,12.00
2023-01-22T17:14:14.289Z,14.43
2023-01-22T17:16:43.473Z,12.03
2023-01-22T17:19:11.213Z,12.40
2023-01-22T17:21:38.903Z,13.90
2023-01-22T17:24:07.165Z,16.13
2023-01-22T17:26:34.774Z,20.10
2023-01-22T17:29:02.430Z,18.13
2023-01-22T17:31:31.322Z,18.60
2023-01-22T17:34:00.430Z,16.60
2023-01-22T17:36:29.591Z,18.13
2023-01-22T17:38:57.822Z,17.90
2023-01-22T17:41:26.955Z,20.37
2023-01-22T17:43:55.950Z,20.37
2023-01-22T17:46:25.593Z,27.00
2023-01-22T17:48:54.204Z,23.00
2023-01-22T17:51:25.500Z,18.43
2023-01-22T17:53:55.431Z,16.40
2023-01-22T17:56:25.971Z,15.50
2023-01-22T17:58:55.125Z,15.00
2023-01-22T18:01:27.876Z,15.57
2023-01-22T18:03:57.117Z,17.47
2023-01-22T18:06:26.536Z,16.57
2023-01-22T18:08:54.891Z,14.83
2023-01-22T18:11:27.521Z,14.70
2023-01-22T18:13:56.601Z,15.23
2023-01-22T18:16:24.918Z,12.90
2023-01-22T18:18:53.271Z,12.80
2023-01-22T18:21:21.970Z,15.80
2023-01-22T18:23:51.503Z,13.70
2023-01-22T18:26:22.894Z,12.73
2023-01-22T18:28:50.877Z,14.00
2023-01-22T18:31:21.376Z,16.67
2023-01-22T18:33:49.394Z,15.27
2023-01-22T18:36:19.554Z,15.37
2023-01-22T18:38:47.528Z,15.73
2023-01-22T18:41:21.038Z,16.90
2023-01-22T18:43:50.475Z,15.40
2023-01-22T18:46:19.923Z,15.47
2023-01-22T18:48:47.604Z,15.93
2023-01-22T18:51:15.255Z,17.47
2023-01-22T18:53:43.353Z,17.60
2023-01-22T18:56:12.569Z,15.10
2023-01-22T18:58:44.384Z,16.40
2023-01-22T19:01:14.734Z,16.60
2023-01-22T19:03:44.052Z,16.50
2023-01-22T19:06:15.993Z,17.17
2023-01-22T19:08:45.011Z,18.87
2023-01-22T19:11:14.246Z,18.03
2023-01-22T19:13:44.841Z,17.10
2023-01-22T19:16:14.409Z,18.63
2023-01-22T19:18:43.886Z,16.70
2023-01-22T19:21:13.489Z,17.37
2023-01-22T19:23:45.465Z,17.50
2023-01-22T19:26:17.689Z,18.60
2023-01-22T19:28:46.879Z,17.00
2023-01-22T19:31:19.044Z,16.67
2023-01-22T19:33:46.915Z,17.20
2023-01-22T19:36:15.055Z,18.67
2023-01-22T19:38:43.053Z,17.73
2023-01-22T19:41:10.719Z,16.73
2023-01-22T19:43:39.012Z,18.13
2023-01-22T19:46:09.975Z,18.10
2023-01-22T19:48:38.481Z,17.80
2023-01-22T19:51:08.866Z,19.07
2023-01-22T19:53:37.276Z,18.80
2023-01-22T19:56:06.478Z,18.90
2023-01-22T19:58:34.100Z,18.87
2023-01-22T20:01:01.964Z,19.00
2023-01-22T20:03:31.107Z,18.20
2023-01-22T20:05:58.711Z,18.47
2023-01-22T20:08:26.328Z,17.77
2023-01-22T20:10:59.186Z,17.60
2023-01-22T20:13:27.612Z,19.87
2023-01-22T20:15:55.351Z,18.47
2023-01-22T20:18:23.773Z,17.27
2023-01-22T20:20:54.886Z,18.50
2023-01-22T20:23:23.335Z,18.03
2023-01-22T20:25:51.667Z,18.20
2023-01-22T20:28:20.590Z,18.40
2023-01-22T20:30:58.110Z,17.30
2023-01-22T20:33:26.198Z,17.60
2023-01-22T20:35:57.877Z,17.40
2023-01-22T20:38:26.158Z,17.73
2023-01-22T20:40:54.133Z,19.60
2023-01-22T20:43:22.043Z,17.03
2023-01-22T20:46:00.072Z,16.60
2023-01-22T20:48:28.096Z,16.97
2023-01-22T20:50:57.123Z,19.40
2023-01-22T20:53:25.371Z,17.40
2023-01-22T20:56:00.331Z,19.07
2023-01-22T20:58:28.547Z,17.50
2023-01-22T21:00:56.466Z,21.27
2023-01-22T21:03:25.151Z,19.70
2023-01-22T21:05:52.753Z,18.10
2023-01-22T21:08:21.713Z,18.27
2023-01-22T21:10:57.066Z,18.70
2023-01-22T21:13:24.721Z,20.67
2023-01-22T21:15:53.760Z,21.93
2023-01-22T21:18:22.657Z,21.07
2023-01-22T21:20:51.046Z,20.43
2023-01-22T21:23:18.762Z,21.13
2023-01-22T21:25:47.702Z,19.57
2023-01-22T21:28:15.654Z,20.90
2023-01-22T21:30:43.438Z,20.80
2023-01-22T21:33:11.110Z,16.93
2023-01-22T21:35:38.713Z,18.20
2023-01-22T21:38:06.332Z,18.80
2023-01-22T21:40:33.968Z,19.70
2023-01-22T21:43:20.406Z,19.60
2023-01-22T21:46:05.566Z,18.60
2023-01-22T21:48:33.345Z,18.70
2023-01-22T21:51:02.890Z,18.23
2023-01-22T21:53:30.528Z,19.60
2023-01-22T21:55:58.358Z,17.17
2023-01-22T21:58:27.326Z,19.40
2023-01-22T22:00:55.641Z,18.40
2023-01-22T22:03:24.323Z,19.40
2023-01-22T22:05:56.523Z,18.17
2023-01-22T22:08:24.149Z,18.47
2023-01-22T22:10:52.822Z,18.47
2023-01-22T22:13:20.800Z,17.60
2023-01-22T22:15:50.206Z,19.10
2023-01-22T22:18:17.842Z,18.07
2023-01-22T22:20:45.455Z,19.40
2023-01-22T22:23:13.060Z,18.20
2023-01-22T22:25:40.676Z,17.37
2023-01-22T22:28:08.270Z,19.20
2023-01-22T22:30:35.893Z,17.37
2023-01-22T22:33:04.968Z,19.60
2023-01-22T22:35:32.759Z,18.93
2023-01-22T22:38:00.392Z,16.80
2023-01-22T22:40:28.025Z,21.20
2023-01-22T22:42:55.677Z,17.70
2023-01-22T22:45:23.442Z,19.73
2023-01-22T22:47:51.053Z,18.80
2023-01-22T22:50:20.406Z,18.67
2023-01-22T22:52:48.307Z,18.23
2023-01-22T22:55:16.176Z,20.20
2023-01-22T22:57:43.786Z,18.50
2023-01-22T23:00:14.483Z,18.87
2023-01-22T23:02:42.611Z,18.83
2023-01-22T23:05:10.615Z,19.10
2023-01-22T23:07:39.585Z,21.53
2023-01-22T23:10:28.366Z,18.47
2023-01-22T23:12:58.211Z,17.10
2023-01-22T23:15:27.465Z,18.70
2023-01-22T23:17:56.324Z,19.60
2023-01-22T23:20:25.097Z,19.60
2023-01-22T23:22:56.688Z,17.60
2023-01-22T23:25:25.035Z,18.43
2023-01-22T23:27:52.873Z,18.43
2023-01-22T23:30:20.879Z,20.77
2023-01-22T23:32:48.633Z,19.00
2023-01-22T23:35:16.362Z,20.53
2023-01-22T23:37:44.029Z,19.60
2023-01-22T23:40:13.861Z,17.80
2023-01-22T23:42:41.498Z,17.93
2023-01-22T23:45:11.930Z,19.00
2023-01-22T23:47:39.693Z,17.50
2023-01-22T23:50:08.629Z,18.83
2023-01-22T23:52:36.294Z,17.30
2023-01-22T23:55:04.259Z,18.63
2023-01-22T23:57:33.291Z,16.83
